Time;durP1;ratioP1;P1;durP2;ratioP2;P2;SDS_P1;SDS_P2;PMS_P1;PMS_P2;Temp;Humidity;BMP_temperature;BMP_pressure;BME280_temperature;BME280_humidity;BME280_pressure;Samples;Min_cycle;Max_cycle;Signal;HPM_P1;HPM_P2
2024/04/15 00:00:22;;;;;;;1.07;1.07;;;16.70;50.00;17.20;97471.00;;;;5346474;26;20238;-57
2024/04/15 00:02:51;;;;;;;1.37;1.30;;;16.70;50.00;17.20;97460.00;;;;5347289;26;20229;-57
2024/04/15 00:05:20;;;;;;;1.00;1.00;;;16.70;50.00;17.20;97459.00;;;;5347922;26;20622;-57
2024/04/15 00:07:49;;;;;;;1.20;1.20;;;16.70;50.00;17.20;97456.00;;;;5347596;26;20233;-57
2024/04/15 00:10:17;;;;;;;1.00;1.00;;;16.70;50.10;17.20;97455.00;;;;5347048;26;20240;-57
2024/04/15 00:12:43;;;;;;;1.20;1.10;;;16.70;50.10;17.20;97449.00;;;;5346993;26;20281;-57
2024/04/15 00:15:12;;;;;;;1.10;1.10;;;16.70;50.10;17.20;97453.00;;;;5347367;26;20342;-57
2024/04/15 00:17:38;;;;;;;1.30;1.20;;;16.70;50.10;17.20;97455.00;;;;5347129;26;20285;-57
2024/04/15 00:20:10;;;;;;;1.10;1.10;;;16.70;50.10;17.20;97440.00;;;;5347010;26;20238;-57
2024/04/15 00:22:36;;;;;;;1.20;1.10;;;16.70;50.10;17.20;97442.00;;;;5347026;26;20352;-57
2024/04/15 00:25:05;;;;;;;1.00;1.00;;;16.70;50.10;17.20;97443.00;;;;5347474;26;20233;-57
2024/04/15 00:27:32;;;;;;;1.10;1.07;;;16.70;50.10;17.20;97436.00;;;;5346876;26;20576;-58
2024/04/15 00:30:00;;;;;;;1.00;1.00;;;16.70;50.10;17.20;97434.00;;;;5346036;26;20233;-57
2024/04/15 00:32:26;;;;;;;1.23;1.23;;;16.70;50.10;17.20;97428.00;;;;5346864;26;20885;-57
2024/04/15 00:34:55;;;;;;;1.40;1.30;;;16.70;50.10;17.20;97425.00;;;;5347809;26;20245;-57
2024/04/15 00:37:23;;;;;;;1.20;1.10;;;16.70;50.10;17.10;97419.00;;;;5346743;26;20280;-57
2024/04/15 00:39:52;;;;;;;1.30;1.20;;;16.70;50.10;17.10;97421.00;;;;5345633;26;20233;-57
2024/04/15 00:42:18;;;;;;;1.00;1.00;;;16.70;50.10;17.10;97415.00;;;;5347553;26;20321;-58
2024/04/15 00:44:46;;;;;;;1.13;1.03;;;16.70;50.10;17.20;97413.00;;;;5346778;26;20640;-57
2024/04/15 00:47:13;;;;;;;1.10;1.10;;;16.70;50.10;17.10;97407.00;;;;5346598;26;20368;-57
2024/04/15 00:49:43;;;;;;;1.03;1.03;;;16.70;50.10;17.10;97401.00;;;;5345713;26;20241;-58
2024/04/15 00:52:11;;;;;;;0.97;0.97;;;16.70;50.10;17.10;97392.00;;;;5346668;26;20261;-57
2024/04/15 00:54:46;;;;;;;1.33;1.23;;;16.60;50.10;17.10;97386.00;;;;5346616;26;20229;-57
2024/04/15 00:57:13;;;;;;;1.07;1.07;;;16.70;50.10;17.10;97378.00;;;;5346958;26;20236;-57
2024/04/15 00:59:44;;;;;;;1.13;1.13;;;16.70;50.10;17.10;97369.00;;;;5345701;26;20263;-57
2024/04/15 01:02:10;;;;;;;1.33;1.23;;;16.60;50.10;17.10;97356.00;;;;5346341;26;20241;-57
2024/04/15 01:04:39;;;;;;;0.97;0.97;;;16.60;50.10;17.10;97363.00;;;;5347040;26;20313;-57
2024/04/15 01:07:06;;;;;;;1.00;1.00;;;16.60;50.10;17.10;97352.00;;;;5346425;26;20301;-57
2024/04/15 01:09:35;;;;;;;1.13;1.03;;;16.60;50.10;17.10;97350.00;;;;5345508;26;20272;-57
2024/04/15 01:12:07;;;;;;;1.70;1.50;;;16.60;50.10;17.10;97348.00;;;;5346262;26;20306;-57
2024/04/15 01:14:33;;;;;;;1.10;1.00;;;16.70;50.20;17.10;97344.00;;;;5346291;26;20355;-57
2024/04/15 01:17:02;;;;;;;1.30;1.20;;;16.60;50.10;17.10;97348.00;;;;5346384;26;20647;-57
2024/04/15 01:19:28;;;;;;;2.13;1.37;;;16.60;50.10;17.10;97343.00;;;;5345942;26;20297;-57
2024/04/15 01:21:56;;;;;;;1.37;1.27;;;16.70;50.20;17.10;97329.00;;;;5346121;26;20351;-57
2024/04/15 01:24:25;;;;;;;1.00;1.00;;;16.60;50.10;17.10;97328.00;;;;5346384;26;20691;-57
2024/04/15 01:26:54;;;;;;;0.90;0.90;;;16.60;50.10;17.10;97322.00;;;;5346820;26;20272;-57
2024/04/15 01:29:20;;;;;;;1.40;1.30;;;16.60;50.10;17.10;97317.00;;;;5345509;26;20304;-57
2024/04/15 01:31:48;;;;;;;0.90;0.90;;;16.60;50.10;17.10;97322.00;;;;5345937;26;20245;-57
2024/04/15 01:34:14;;;;;;;0.90;0.90;;;16.60;50.10;17.10;97317.00;;;;5346180;26;20363;-57
2024/04/15 01:36:43;;;;;;;1.07;1.07;;;16.60;50.10;17.10;97314.00;;;;5346132;26;20778;-57
2024/04/15 01:39:09;;;;;;;1.10;1.10;;;16.60;50.10;17.10;97310.00;;;;5345047;26;20264;-57
2024/04/15 01:41:41;;;;;;;1.30;1.20;;;16.60;50.10;17.10;97313.00;;;;5345409;26;20356;-57
2024/04/15 01:44:07;;;;;;;1.10;1.10;;;16.60;50.10;17.10;97309.00;;;;5346246;26;20272;-57
2024/04/15 01:46:36;;;;;;;1.20;1.20;;;16.60;50.10;17.10;97301.00;;;;5345777;26;20761;-57
2024/04/15 01:49:02;;;;;;;1.10;1.10;;;16.60;50.10;17.10;97299.00;;;;5345699;26;20296;-57
2024/04/15 01:51:31;;;;;;;0.97;0.97;;;16.60;50.20;17.10;97286.00;;;;5344749;26;20305;-57
2024/04/15 01:53:57;;;;;;;1.30;1.20;;;16.60;50.10;17.10;97281.00;;;;5345823;26;20337;-57
2024/04/15 01:56:25;;;;;;;1.10;0.97;;;16.60;50.20;17.10;97278.00;;;;5346314;26;20237;-57
2024/04/15 01:58:54;;;;;;;1.00;1.00;;;16.60;50.10;17.10;97272.00;;;;5344833;26;20311;-57
2024/04/15 02:01:22;;;;;;;1.07;1.07;;;16.60;50.10;17.10;97271.00;;;;5345578;26;20241;-57
2024/04/15 02:03:48;;;;;;;2.00;1.00;;;16.60;50.20;17.10;97275.00;;;;5345590;26;20231;-57
2024/04/15 02:06:17;;;;;;;1.27;1.17;;;16.60;50.10;17.10;97268.00;;;;5345479;26;20241;-57
2024/04/15 02:08:43;;;;;;;1.30;1.20;;;16.60;50.20;17.00;97262.00;;;;5344715;26;20226;-57
2024/04/15 02:11:12;;;;;;;1.03;1.03;;;16.60;50.20;17.00;97261.00;;;;5346105;26;20371;-57
2024/04/15 02:13:38;;;;;;;1.03;1.03;;;16.60;50.10;17.00;97255.00;;;;5345268;26;20229;-57
2024/04/15 02:16:10;;;;;;;1.17;1.10;;;16.60;50.20;17.00;97257.00;;;;5345465;26;20233;-57
2024/04/15 02:18:35;;;;;;;1.10;1.10;;;16.60;50.10;17.00;97247.00;;;;5344585;26;20365;-57
2024/04/15 02:21:04;;;;;;;1.20;1.20;;;16.60;50.20;17.00;97241.00;;;;5346192;26;20257;-57
2024/04/15 02:23:30;;;;;;;1.00;1.00;;;16.60;50.20;17.00;97240.00;;;;5345230;26;20233;-57
2024/04/15 02:25:59;;;;;;;1.10;1.10;;;16.60;50.20;17.00;97236.00;;;;5345860;26;20659;-57
2024/04/15 02:28:25;;;;;;;1.17;1.13;;;16.50;50.20;17.00;97227.00;;;;5344639;26;20292;-57
2024/04/15 02:30:53;;;;;;;1.00;1.00;;;16.50;50.20;17.00;97221.00;;;;5345169;26;20355;-57
2024/04/15 02:33:22;;;;;;;1.20;1.10;;;16.50;50.20;17.00;97221.00;;;;5346024;26;20284;-57
2024/04/15 02:35:51;;;;;;;1.30;1.20;;;16.50;50.20;17.00;97229.00;;;;5345408;26;20260;-57
2024/04/15 02:38:17;;;;;;;1.20;1.20;;;16.60;50.20;17.00;97234.00;;;;5344359;26;20305;-57
2024/04/15 02:40:45;;;;;;;1.20;1.10;;;16.50;50.20;17.00;97238.00;;;;5345192;26;20303;-57
2024/04/15 02:43:11;;;;;;;1.03;1.03;;;16.50;50.20;17.00;97233.00;;;;5345048;26;20289;-57
2024/04/15 02:45:40;;;;;;;1.23;1.13;;;16.50;50.20;17.00;97225.00;;;;5344948;26;20233;-57
2024/04/15 02:48:06;;;;;;;1.10;1.10;;;16.50;50.20;17.00;97226.00;;;;5344777;26;20770;-57
2024/04/15 02:50:38;;;;;;;1.33;1.23;;;16.50;50.20;17.00;97226.00;;;;5345499;26;20241;-57
2024/04/15 02:53:04;;;;;;;1.00;1.00;;;16.50;50.20;17.00;97231.00;;;;5344872;26;20301;-57
2024/04/15 02:55:33;;;;;;;1.07;1.07;;;16.50;50.20;17.00;97227.00;;;;5345337;26;20241;-57
2024/04/15 02:57:59;;;;;;;1.27;1.17;;;16.50;50.20;17.00;97226.00;;;;5344821;26;20286;-57
2024/04/15 03:00:28;;;;;;;0.90;0.90;;;16.50;50.20;17.00;97217.00;;;;5343973;26;20774;-57
2024/04/15 03:02:54;;;;;;;1.10;1.10;;;16.50;50.20;17.00;97225.00;;;;5344840;26;20338;-57
2024/04/15 03:05:23;;;;;;;1.10;1.10;;;16.50;50.20;17.00;97224.00;;;;5348660;26;20288;-57
2024/04/15 03:07:51;;;;;;;1.10;1.00;;;16.50;50.30;17.00;97215.00;;;;5347909;26;20973;-57
2024/04/15 03:10:20;;;;;;;1.10;1.10;;;16.50;50.30;17.00;97211.00;;;;5347303;26;20291;-57
2024/04/15 03:12:51;;;;;;;1.23;1.10;;;16.50;50.30;17.00;97217.00;;;;5348029;26;20289;-57
2024/04/15 03:15:19;;;;;;;1.30;1.20;;;16.50;50.30;17.00;97211.00;;;;5347775;26;20237;-57
2024/04/15 03:17:47;;;;;;;1.30;1.20;;;16.50;50.30;17.00;97223.00;;;;5347697;26;20263;-57
2024/04/15 03:20:16;;;;;;;1.13;1.13;;;16.50;50.30;17.00;97205.00;;;;5347221;26;20726;-57
2024/04/15 03:22:48;;;;;;;1.40;1.30;;;16.50;50.30;16.90;97203.00;;;;5347756;26;20229;-57
2024/04/15 03:25:20;;;;;;;1.37;1.27;;;16.50;50.30;16.90;97208.00;;;;5347927;26;20282;-57
2024/04/15 03:27:46;;;;;;;1.20;1.10;;;16.50;50.30;16.90;97208.00;;;;5347613;26;20292;-57
2024/04/15 03:30:14;;;;;;;1.10;1.10;;;16.50;50.30;16.90;97194.00;;;;5346778;26;20304;-58
2024/04/15 03:32:40;;;;;;;1.30;1.20;;;16.40;50.20;16.90;97207.00;;;;5347597;26;20338;-57
2024/04/15 03:35:14;;;;;;;1.00;1.00;;;16.50;50.30;16.90;97212.00;;;;5348422;26;20241;-57
2024/04/15 03:37:43;;;;;;;1.10;1.10;;;16.50;50.30;16.90;97206.00;;;;5347835;26;20336;-57
2024/04/15 03:40:13;;;;;;;1.07;1.07;;;16.50;50.30;16.90;97214.00;;;;5347396;26;20735;-57
2024/04/15 03:42:44;;;;;;;1.30;1.20;;;16.50;50.30;16.90;97211.00;;;;5347538;26;20322;-57
2024/04/15 03:45:12;;;;;;;1.40;1.30;;;16.50;50.30;16.90;97206.00;;;;5347472;26;20699;-57
2024/04/15 03:47:38;;;;;;;1.40;1.30;;;16.50;50.30;16.90;97203.00;;;;5347389;26;20849;-57
2024/04/15 03:50:08;;;;;;;1.00;1.00;;;16.40;50.30;16.90;97202.00;;;;5346517;26;20253;-57
2024/04/15 03:52:34;;;;;;;1.17;1.10;;;16.40;50.20;16.90;97197.00;;;;5347488;26;20289;-57
2024/04/15 03:55:03;;;;;;;0.93;0.93;;;16.40;50.30;16.90;97196.00;;;;5348094;26;20308;-57
2024/04/15 03:57:29;;;;;;;1.33;1.23;;;16.40;50.30;16.90;97189.00;;;;5347434;26;20276;-57
2024/04/15 04:00:00;;;;;;;0.90;0.90;;;16.40;50.30;16.90;97187.00;;;;5346525;26;20574;-57
2024/04/15 04:02:26;;;;;;;1.37;1.27;;;16.40;50.30;16.90;97191.00;;;;5347323;26;20300;-57
2024/04/15 04:04:55;;;;;;;1.20;1.20;;;16.40;50.30;16.90;97191.00;;;;5347283;26;20312;-57
2024/04/15 04:07:22;;;;;;;1.37;1.27;;;16.40;50.30;16.90;97187.00;;;;5347247;26;20774;-57
2024/04/15 04:09:50;;;;;;;1.20;1.10;;;16.40;50.30;16.90;97186.00;;;;5346580;26;20326;-57
2024/04/15 04:12:17;;;;;;;1.20;1.10;;;16.40;50.30;16.90;97186.00;;;;5347848;26;20750;-57
2024/04/15 04:14:46;;;;;;;1.30;1.20;;;16.40;50.30;16.90;97185.00;;;;5346643;26;20237;-57
2024/04/15 04:17:15;;;;;;;1.20;1.10;;;16.40;50.30;16.90;97184.00;;;;5347191;26;20351;-57
2024/04/15 04:19:43;;;;;;;1.03;1.03;;;16.40;50.30;16.90;97195.00;;;;5346995;26;20237;-57
2024/04/15 04:22:09;;;;;;;1.10;1.00;;;16.40;50.30;16.90;97204.00;;;;5346973;26;20305;-57
2024/04/15 04:24:38;;;;;;;1.40;1.30;;;16.40;51.00;16.90;97210.00;;;;5347038;26;20316;-57
2024/04/15 04:27:04;;;;;;;1.10;1.10;;;16.40;50.30;16.90;97231.00;;;;5347479;26;20237;-57
2024/04/15 04:29:36;;;;;;;1.20;1.10;;;16.40;50.40;16.90;97238.00;;;;5346022;26;20383;-57
2024/04/15 04:32:03;;;;;;;1.20;1.10;;;16.40;50.40;16.90;97248.00;;;;5347022;26;20316;-57
2024/04/15 04:34:37;;;;;;;1.10;1.10;;;16.40;50.40;16.90;97243.00;;;;5347705;26;20288;-57
2024/04/15 04:37:03;;;;;;;1.10;1.10;;;16.40;50.40;16.90;97258.00;;;;5346695;26;20229;-57
2024/04/15 04:39:32;;;;;;;1.20;1.10;;;16.40;50.40;16.90;97257.00;;;;5345973;26;20338;-57
2024/04/15 04:41:58;;;;;;;1.33;1.23;;;16.40;50.40;16.90;97253.00;;;;5347506;26;20308;-57
2024/04/15 04:44:27;;;;;;;1.40;1.30;;;16.40;50.40;16.90;97225.00;;;;5346683;26;20832;-57
2024/04/15 04:46:53;;;;;;;1.20;1.20;;;16.40;50.40;16.90;97220.00;;;;5346750;26;20229;-57
2024/04/15 04:49:22;;;;;;;1.10;1.10;;;16.40;50.40;16.90;97214.00;;;;5346644;26;20234;-57
2024/04/15 04:51:51;;;;;;;1.40;1.30;;;16.40;50.40;16.90;97201.00;;;;5346663;26;20376;-57
2024/04/15 04:54:20;;;;;;;1.23;1.13;;;16.40;50.40;16.80;97218.00;;;;5346639;26;20351;-57
2024/04/15 04:56:46;;;;;;;1.30;1.20;;;16.40;50.40;16.80;97209.00;;;;5347053;26;20364;-57
2024/04/15 04:59:16;;;;;;;1.20;1.10;;;16.40;50.40;16.80;97195.00;;;;5345740;26;20237;-57
2024/04/15 05:01:42;;;;;;;1.50;1.40;;;16.30;50.40;16.80;97200.00;;;;5346531;26;20293;-57
2024/04/15 05:04:10;;;;;;;1.53;1.10;;;16.40;50.40;16.80;97201.00;;;;5346200;26;20330;-57
2024/04/15 05:06:37;;;;;;;1.10;1.10;;;16.40;50.40;16.80;97191.00;;;;5347167;26;20317;-57
2024/04/15 05:09:08;;;;;;;1.30;1.20;;;16.40;50.40;16.80;97191.00;;;;5345479;26;20237;-57
2024/04/15 05:11:34;;;;;;;1.30;1.20;;;16.30;50.40;16.80;97190.00;;;;5346274;26;20713;-57
2024/04/15 05:14:03;;;;;;;1.40;1.30;;;16.40;50.50;16.80;97199.00;;;;5346463;26;20248;-57
2024/04/15 05:16:30;;;;;;;1.30;1.20;;;16.30;50.50;16.80;97204.00;;;;5346200;26;20358;-57
2024/04/15 05:18:58;;;;;;;1.40;1.30;;;16.30;50.50;16.80;97211.00;;;;5346045;26;20336;-57
2024/04/15 05:21:25;;;;;;;1.20;1.20;;;16.40;50.50;16.80;97211.00;;;;5346058;26;20375;-57
2024/04/15 05:23:53;;;;;;;1.40;1.30;;;16.40;50.50;16.80;97212.00;;;;5346071;26;20300;-57
2024/04/15 05:26:22;;;;;;;1.90;1.40;;;16.40;50.40;16.80;97221.00;;;;5345512;26;20680;-57
2024/04/15 05:28:50;;;;;;;1.30;1.20;;;16.40;50.50;16.80;97225.00;;;;5345381;26;20319;-57
2024/04/15 05:31:16;;;;;;;1.50;1.40;;;16.40;50.50;16.80;97225.00;;;;5346057;26;20848;-57
2024/04/15 05:33:46;;;;;;;1.00;1.00;;;16.30;50.50;16.80;97235.00;;;;5346307;26;20240;-57
2024/04/15 05:36:12;;;;;;;1.40;1.30;;;16.30;50.40;16.80;97243.00;;;;5346794;26;20284;-58
2024/04/15 05:38:41;;;;;;;1.40;1.30;;;16.30;50.50;16.80;97239.00;;;;5345208;26;20275;-58
2024/04/15 05:41:07;;;;;;;1.60;1.50;;;16.40;50.50;16.80;97253.00;;;;5346544;26;20705;-57
2024/04/15 05:43:38;;;;;;;1.40;1.30;;;16.40;50.50;16.80;97243.00;;;;5345894;26;20277;-59
2024/04/15 05:46:04;;;;;;;1.50;1.40;;;16.40;50.50;16.80;97268.00;;;;5345853;26;20308;-58
2024/04/15 05:48:33;;;;;;;1.20;1.20;;;16.30;50.50;16.80;97277.00;;;;5345656;26;20323;-58
2024/04/15 05:50:59;;;;;;;1.43;1.33;;;16.40;51.20;16.80;97299.00;;;;5345710;26;20375;-57
2024/04/15 05:53:28;;;;;;;1.40;1.30;;;16.30;50.50;16.80;97296.00;;;;5345869;26;20236;-58
2024/04/15 05:55:53;;;;;;;1.60;1.50;;;16.30;50.50;16.80;97303.00;;;;5345855;26;20373;-58
2024/04/15 05:58:22;;;;;;;1.20;1.10;;;16.30;50.50;16.80;97288.00;;;;5344787;26;20770;-57
2024/04/15 06:00:51;;;;;;;1.40;1.30;;;16.30;50.50;16.80;97284.00;;;;5345735;26;20241;-57
2024/04/15 06:03:19;;;;;;;1.50;1.40;;;16.30;50.50;16.80;97279.00;;;;5345719;26;20233;-57
2024/04/15 06:05:49;;;;;;;1.40;1.30;;;16.30;50.50;16.80;97294.00;;;;5346379;26;20316;-58
2024/04/15 06:08:17;;;;;;;1.27;1.20;;;16.30;50.50;16.80;97320.00;;;;5344636;26;20764;-57
2024/04/15 06:10:47;;;;;;;1.40;1.30;;;16.30;50.50;16.80;97335.00;;;;5346049;26;20433;-57
2024/04/15 06:13:15;;;;;;;1.60;1.50;;;16.40;50.50;16.80;97320.00;;;;5345496;26;20233;-57
2024/04/15 06:15:41;;;;;;;1.20;1.20;;;16.30;50.50;16.80;97298.00;;;;5345411;26;20229;-57
2024/04/15 06:18:13;;;;;;;1.07;1.07;;;16.30;50.50;16.80;97302.00;;;;5344968;26;20948;-58
2024/04/15 06:20:40;;;;;;;1.40;1.30;;;16.30;50.50;16.80;97308.00;;;;5345392;26;20285;-57
2024/04/15 06:23:09;;;;;;;1.47;1.37;;;16.30;50.50;16.80;97309.00;;;;5345298;26;20233;-57
2024/04/15 06:25:35;;;;;;;1.97;1.47;;;16.30;50.60;16.80;97311.00;;;;5346214;26;20297;-57
2024/04/15 06:28:03;;;;;;;1.47;1.30;;;16.30;50.50;16.80;97298.00;;;;5345399;26;20241;-57
2024/04/15 06:30:29;;;;;;;1.40;1.30;;;16.30;50.60;16.80;97262.00;;;;5344784;26;20380;-58
2024/04/15 06:32:58;;;;;;;1.50;1.40;;;16.30;50.50;16.80;97280.00;;;;5345239;26;20241;-57
2024/04/15 06:35:27;;;;;;;1.57;1.47;;;16.30;50.50;16.80;97271.00;;;;5346114;26;20375;-57
2024/04/15 06:37:56;;;;;;;1.33;1.23;;;16.30;50.50;16.80;97289.00;;;;5344899;26;20923;-57
2024/04/15 06:40:24;;;;;;;1.27;1.17;;;16.40;50.50;16.80;97299.00;;;;5344538;26;20780;-57
2024/04/15 06:42:53;;;;;;;1.40;1.30;;;16.40;50.50;16.80;97310.00;;;;5345114;26;20307;-57
2024/04/15 06:45:19;;;;;;;1.60;1.50;;;16.40;50.50;16.80;97292.00;;;;5345074;26;20601;-57
2024/04/15 06:47:48;;;;;;;1.50;1.40;;;16.40;50.50;16.80;97297.00;;;;5345256;26;20237;-57
2024/04/15 06:50:14;;;;;;;1.30;1.20;;;16.40;50.50;16.80;97295.00;;;;5344100;26;20276;-57
2024/04/15 06:52:45;;;;;;;1.70;1.60;;;16.40;50.50;16.80;97297.00;;;;5344893;26;20272;-57
2024/04/15 06:55:11;;;;;;;1.60;1.50;;;16.40;50.50;16.80;97292.00;;;;5345615;26;20369;-58
2024/04/15 06:57:40;;;;;;;1.40;1.30;;;16.30;50.50;16.80;97276.00;;;;5344864;26;20237;-58
2024/04/15 07:00:08;;;;;;;1.17;1.10;;;16.30;50.50;16.80;97273.00;;;;5343824;26;20284;-57
2024/04/15 07:02:36;;;;;;;1.33;1.23;;;16.30;50.50;16.80;97283.00;;;;5344605;26;20233;-57
2024/04/15 07:05:03;;;;;;;1.40;1.30;;;16.30;50.50;16.80;97298.00;;;;5344543;26;20364;-57
2024/04/15 07:07:31;;;;;;;1.50;1.40;;;16.30;50.50;16.80;97317.00;;;;5344653;26;20775;-57
2024/04/15 07:10:00;;;;;;;1.30;1.20;;;16.40;50.50;16.80;97323.00;;;;5344117;26;20804;-58
2024/04/15 07:12:29;;;;;;;1.50;1.40;;;16.40;50.50;16.80;97338.00;;;;5344645;26;20343;-57
2024/04/15 07:14:54;;;;;;;1.57;1.47;;;16.40;50.50;16.80;97354.00;;;;5344610;26;20302;-57
2024/04/15 07:17:23;;;;;;;1.53;1.27;;;16.30;50.60;16.80;97336.00;;;;5344680;26;20330;-57
2024/04/15 07:19:49;;;;;;;1.53;1.43;;;16.30;50.60;16.80;97339.00;;;;5344276;26;20713;-57
2024/04/15 07:22:18;;;;;;;1.63;1.50;;;16.30;50.60;16.80;97350.00;;;;5344503;26;20253;-57
2024/04/15 07:24:44;;;;;;;1.30;1.20;;;16.30;50.60;16.80;97373.00;;;;5344354;26;20229;-57
2024/04/15 07:27:15;;;;;;;1.30;1.30;;;16.30;50.60;16.80;97377.00;;;;5344906;26;20296;-58
2024/04/15 07:29:41;;;;;;;1.53;1.43;;;16.30;50.60;16.80;97405.00;;;;5343432;26;20334;-57
2024/04/15 07:32:10;;;;;;;1.10;1.10;;;16.30;50.60;16.80;97414.00;;;;5344151;26;20242;-57
2024/04/15 07:34:36;;;;;;;1.77;1.67;;;16.30;50.60;16.80;97419.00;;;;5344864;26;20297;-57
2024/04/15 07:37:07;;;;;;;1.37;1.27;;;16.30;50.60;16.80;97397.00;;;;5344285;26;20284;-57
2024/04/15 07:39:33;;;;;;;1.60;1.50;;;16.30;50.60;16.80;97362.00;;;;5343307;26;20279;-57
2024/04/15 07:42:01;;;;;;;1.50;1.40;;;16.30;50.70;16.80;97348.00;;;;5373867;26;20248;-57
2024/04/15 07:44:30;;;;;;;1.63;1.50;;;16.30;50.70;16.80;97329.00;;;;5378942;26;20373;-57
2024/04/15 07:46:58;;;;;;;1.50;1.40;;;16.30;50.70;16.80;97328.00;;;;5379002;26;20300;-57
2024/04/15 07:49:24;;;;;;;1.70;1.60;;;16.30;50.70;16.80;97335.00;;;;5364658;26;20800;-57
2024/04/15 07:51:53;;;;;;;1.67;1.57;;;16.30;50.70;16.80;97334.00;;;;5347649;26;20355;-57
2024/04/15 07:54:19;;;;;;;1.50;1.40;;;16.30;50.70;16.80;97329.00;;;;5347354;26;20706;-57
2024/04/15 07:56:48;;;;;;;1.40;1.30;;;16.30;50.70;16.80;97330.00;;;;5347953;26;20249;-57
2024/04/15 07:59:14;;;;;;;1.30;1.20;;;16.30;50.60;16.80;97336.00;;;;5346407;26;20354;-57
2024/04/15 08:01:45;;;;;;;1.50;1.40;;;16.30;50.70;16.80;97353.00;;;;5347308;26;20253;-57
2024/04/15 08:04:11;;;;;;;1.50;1.40;;;16.30;50.70;16.80;97361.00;;;;5347773;26;20306;-57
2024/04/15 08:06:39;;;;;;;1.53;1.43;;;16.30;50.70;16.80;97345.00;;;;5347536;26;20334;-57
2024/04/15 08:09:07;;;;;;;1.40;1.30;;;16.30;50.70;16.80;97345.00;;;;5346197;26;20233;-57
2024/04/15 08:11:35;;;;;;;1.60;1.50;;;16.30;50.70;16.80;97334.00;;;;5347743;26;20571;-57
2024/04/15 08:14:02;;;;;;;1.40;1.30;;;16.30;50.70;16.80;97347.00;;;;5347161;26;20737;-57
2024/04/15 08:16:31;;;;;;;1.80;1.70;;;16.30;50.70;16.80;97355.00;;;;5347297;26;20229;-57
2024/04/15 08:19:00;;;;;;;1.23;1.20;;;16.30;50.70;16.80;97345.00;;;;5346012;26;20281;-57
2024/04/15 08:21:28;;;;;;;1.50;1.40;;;16.30;50.70;16.80;97329.00;;;;5347110;26;20272;-57
2024/04/15 08:23:54;;;;;;;1.33;1.23;;;16.30;50.70;16.80;97333.00;;;;5347054;26;20281;-57
2024/04/15 08:26:23;;;;;;;1.47;1.33;;;16.30;50.70;16.80;97332.00;;;;5347773;26;20245;-57
2024/04/15 08:28:49;;;;;;;1.40;1.30;;;16.30;50.70;16.80;97318.00;;;;5346080;26;20285;-57
2024/04/15 08:31:17;;;;;;;1.60;1.50;;;16.30;50.70;16.80;97319.00;;;;5346832;26;20704;-57
2024/04/15 08:33:43;;;;;;;1.53;1.43;;;16.30;50.70;16.80;97332.00;;;;5347157;26;20828;-57
2024/04/15 08:36:15;;;;;;;1.70;1.60;;;16.30;50.70;16.80;97348.00;;;;5346945;26;20229;-57
2024/04/15 08:38:44;;;;;;;1.43;1.33;;;16.30;50.70;16.80;97327.00;;;;5346058;26;20260;-57
2024/04/15 08:41:22;;;;;;;1.47;1.37;;;16.30;50.70;16.80;97325.00;;;;5346984;26;20245;-57
2024/04/15 08:43:48;;;;;;;1.43;1.33;;;16.30;50.70;16.80;97301.00;;;;5346818;26;20233;-57
2024/04/15 08:46:26;;;;;;;1.50;1.40;;;16.30;50.70;16.80;97305.00;;;;5346678;26;20229;-57
2024/04/15 08:48:52;;;;;;;1.40;1.30;;;16.30;50.70;16.80;97291.00;;;;5346310;26;20355;-57
2024/04/15 08:51:25;;;;;;;1.60;1.50;;;16.30;50.70;16.80;97275.00;;;;5346601;26;20305;-58
2024/04/15 08:53:51;;;;;;;1.53;1.40;;;16.30;50.70;16.80;97275.00;;;;5346856;26;20296;-57
2024/04/15 08:56:19;;;;;;;1.50;1.40;;;16.30;50.70;16.80;97277.00;;;;5347156;26;20792;-57
2024/04/15 08:58:52;;;;;;;1.30;1.20;;;16.30;50.70;16.80;97283.00;;;;5345698;26;20344;-57
2024/04/15 09:01:21;;;;;;;1.33;1.20;;;16.30;50.70;16.80;97286.00;;;;5346433;26;20358;-58
2024/04/15 09:03:48;;;;;;;1.20;1.10;;;16.30;50.70;16.80;97290.00;;;;5346416;26;20281;-57
2024/04/15 09:06:18;;;;;;;1.63;1.53;;;16.30;50.70;16.80;97300.00;;;;5347247;26;20287;-57
2024/04/15 09:08:47;;;;;;;1.47;1.37;;;16.30;50.70;16.80;97306.00;;;;5345459;26;20230;-57
2024/04/15 09:11:16;;;;;;;1.40;1.30;;;16.30;50.70;16.80;97313.00;;;;5347074;26;20368;-57
2024/04/15 09:13:42;;;;;;;1.60;1.50;;;16.30;50.70;16.80;97318.00;;;;5346371;26;20233;-57
2024/04/15 09:16:12;;;;;;;1.40;1.30;;;16.30;50.70;16.80;97313.00;;;;5346271;26;20335;-57
2024/04/15 09:18:38;;;;;;;1.70;1.53;;;16.30;50.70;16.80;97310.00;;;;5346116;26;20367;-57
2024/04/15 09:21:08;;;;;;;1.73;1.60;;;16.30;50.70;16.80;97316.00;;;;5346228;26;20664;-57
2024/04/15 09:23:34;;;;;;;1.40;1.30;;;16.30;50.70;16.80;97317.00;;;;5346206;26;20619;-57
2024/04/15 09:26:05;;;;;;;1.40;1.30;;;16.30;51.40;16.80;97323.00;;;;5346857;26;20351;-57
2024/04/15 09:28:31;;;;;;;1.40;1.30;;;16.30;50.80;16.80;97334.00;;;;5345225;26;20853;-58
2024/04/15 09:31:01;;;;;;;2.27;1.47;;;16.30;50.80;16.80;97331.00;;;;5345934;26;20253;-57
2024/04/15 09:33:27;;;;;;;1.50;1.40;;;16.30;50.80;16.80;97333.00;;;;5346278;26;20701;-57
2024/04/15 09:35:56;;;;;;;1.50;1.40;;;16.30;50.80;16.80;97341.00;;;;5345826;26;20285;-57
2024/04/15 09:38:24;;;;;;;1.67;1.57;;;16.30;50.80;16.80;97352.00;;;;5345094;26;20355;-57
2024/04/15 09:40:55;;;;;;;1.03;1.03;;;16.30;50.80;16.80;97348.00;;;;5346566;26;20288;-57
2024/04/15 09:43:27;;;;;;;1.60;1.50;;;16.30;50.80;16.80;97347.00;;;;5345802;26;20824;-57
2024/04/15 09:45:58;;;;;;;1.40;1.30;;;16.30;50.80;16.80;97333.00;;;;5345981;26;20236;-57
2024/04/15 09:48:26;;;;;;;1.30;1.20;;;16.30;50.80;16.80;97333.00;;;;5345718;26;20726;-57
2024/04/15 09:50:57;;;;;;;1.40;1.30;;;16.30;50.90;16.70;97329.00;;;;5345775;26;20283;-57
2024/04/15 09:53:37;;;;;;;1.53;1.43;;;16.30;50.90;16.80;97316.00;;;;5345833;26;20226;-57
2024/04/15 09:56:15;;;;;;;1.40;1.30;;;16.30;50.80;16.80;97310.00;;;;5345845;26;20283;-57
2024/04/15 09:58:51;;;;;;;1.47;1.37;;;16.30;50.90;16.80;97313.00;;;;5344990;26;20229;-57
2024/04/15 10:01:24;;;;;;;1.50;1.40;;;16.30;50.90;16.80;97313.00;;;;5345649;26;20253;-57
2024/04/15 10:03:52;;;;;;;1.50;1.40;;;16.30;50.80;16.80;97312.00;;;;5345743;26;20296;-57
2024/04/15 10:06:29;;;;;;;1.50;1.40;;;16.30;50.80;16.80;97296.00;;;;5345790;26;20233;-57
2024/04/15 10:08:57;;;;;;;1.13;1.13;;;16.30;50.90;16.70;97295.00;;;;5344754;26;20292;-57
2024/04/15 10:11:26;;;;;;;1.40;1.30;;;16.30;50.90;16.80;97284.00;;;;5346272;26;20661;-57
2024/04/15 10:13:57;;;;;;;1.43;1.20;;;16.30;50.80;16.80;97295.00;;;;5344975;26;20292;-57
2024/04/15 10:16:26;;;;;;;1.40;1.30;;;16.30;50.80;16.80;97298.00;;;;5345611;26;20595;-57
2024/04/15 10:18:52;;;;;;;1.53;1.30;;;16.30;50.80;16.80;97293.00;;;;5344605;26;20320;-57
2024/04/15 10:21:21;;;;;;;1.33;1.23;;;16.30;50.80;16.80;97291.00;;;;5345274;26;20291;-57
2024/04/15 10:23:47;;;;;;;1.60;1.50;;;16.30;50.80;16.80;97303.00;;;;5345376;26;20233;-57
2024/04/15 10:26:19;;;;;;;1.50;1.40;;;16.30;50.80;16.80;97294.00;;;;5345951;26;20287;-57
2024/04/15 10:28:45;;;;;;;1.40;1.30;;;16.30;50.80;16.70;97294.00;;;;5344516;26;20229;-57
2024/04/15 10:31:18;;;;;;;1.57;1.47;;;16.30;50.80;16.80;97273.00;;;;5345517;26;20309;-57
2024/04/15 10:33:54;;;;;;;1.40;1.30;;;16.30;50.80;16.80;97279.00;;;;5346189;26;20280;-57
2024/04/15 10:36:29;;;;;;;1.50;1.40;;;16.30;50.80;16.80;97278.00;;;;5345233;26;20347;-57
2024/04/15 10:38:57;;;;;;;2.50;1.20;;;16.30;50.80;16.70;97271.00;;;;5344494;26;20562;-57
2024/04/15 10:41:23;;;;;;;1.40;1.30;;;16.30;50.80;16.70;97267.00;;;;5345666;26;20802;-57
2024/04/15 10:43:53;;;;;;;1.50;1.40;;;16.30;50.80;16.70;97259.00;;;;5345396;26;20233;-57
2024/04/15 10:46:24;;;;;;;1.40;1.30;;;16.30;50.80;16.80;97259.00;;;;5345193;26;20344;-57
2024/04/15 10:48:53;;;;;;;1.63;1.53;;;16.30;50.80;16.80;97255.00;;;;5344504;26;20322;-57
2024/04/15 10:53:57;;;;;;;1.60;1.50;;;16.30;50.80;16.80;97267.00;;;;5792041;21;20285;-58
2024/04/15 10:56:23;;;;;;;1.33;1.23;;;16.30;50.80;16.80;97266.00;;;;5414165;26;20349;-58
2024/04/15 10:58:52;;;;;;;1.33;1.23;;;16.30;50.80;16.80;97262.00;;;;5414067;26;20234;-58
2024/04/15 11:01:21;;;;;;;1.30;1.20;;;16.30;50.80;16.80;97264.00;;;;5415219;26;20307;-58